sensor_id;sensor_type;location;lat;lon;timestamp;P1;durP1;ratioP1;P2;durP2;ratioP2
11197;SDS011;5655;48.744;9.162;2024-03-02T00:00:44;13.35;;;9.68;;
11197;SDS011;5655;48.744;9.162;2024-03-02T00:03:11;14.27;;;10.23;;
11197;SDS011;5655;48.744;9.162;2024-03-02T00:05:39;16.33;;;10.38;;
11197;SDS011;5655;48.744;9.162;2024-03-02T00:08:04;15.52;;;10.70;;
11197;SDS011;5655;48.744;9.162;2024-03-02T00:10:38;20.20;;;10.98;;
11197;SDS011;5655;48.744;9.162;2024-03-02T00:13:07;16.02;;;11.05;;
11197;SDS011;5655;48.744;9.162;2024-03-02T00:15:40;16.13;;;10.23;;
11197;SDS011;5655;48.744;9.162;2024-03-02T00:18:35;15.85;;;10.50;;
11197;SDS011;5655;48.744;9.162;2024-03-02T00:21:00;14.32;;;10.27;;
11197;SDS011;5655;48.744;9.162;2024-03-02T00:23:30;15.60;;;10.52;;
11197;SDS011;5655;48.744;9.162;2024-03-02T00:25:56;16.67;;;10.15;;
11197;SDS011;5655;48.744;9.162;2024-03-02T00:33:39;14.18;;;9.73;;
11197;SDS011;5655;48.744;9.162;2024-03-02T00:36:07;13.23;;;10.30;;
11197;SDS011;5655;48.744;9.162;2024-03-02T00:38:33;14.50;;;10.63;;
11197;SDS011;5655;48.744;9.162;2024-03-02T00:41:00;14.75;;;10.30;;
11197;SDS011;5655;48.744;9.162;2024-03-02T00:43:45;14.57;;;9.68;;
11197;SDS011;5655;48.744;9.162;2024-03-02T00:46:16;14.77;;;9.65;;
11197;SDS011;5655;48.744;9.162;2024-03-02T00:48:48;14.05;;;9.48;;
11197;SDS011;5655;48.744;9.162;2024-03-02T00:51:17;15.75;;;9.45;;
11197;SDS011;5655;48.744;9.162;2024-03-02T00:53:43;14.23;;;9.15;;
11197;SDS011;5655;48.744;9.162;2024-03-02T00:56:11;12.88;;;8.07;;
11197;SDS011;5655;48.744;9.162;2024-03-02T00:58:37;14.52;;;9.23;;
11197;SDS011;5655;48.744;9.162;2024-03-02T01:01:03;13.15;;;9.13;;
11197;SDS011;5655;48.744;9.162;2024-03-02T01:03:28;14.45;;;8.98;;
11197;SDS011;5655;48.744;9.162;2024-03-02T01:05:56;13.77;;;9.27;;
11197;SDS011;5655;48.744;9.162;2024-03-02T01:08:21;14.48;;;9.55;;
11197;SDS011;5655;48.744;9.162;2024-03-02T01:10:46;15.32;;;9.10;;
11197;SDS011;5655;48.744;9.162;2024-03-02T01:13:12;13.23;;;9.13;;
11197;SDS011;5655;48.744;9.162;2024-03-02T01:15:37;13.75;;;9.13;;
11197;SDS011;5655;48.744;9.162;2024-03-02T01:18:03;14.57;;;9.15;;
11197;SDS011;5655;48.744;9.162;2024-03-02T01:20:28;14.52;;;10.05;;
11197;SDS011;5655;48.744;9.162;2024-03-02T01:22:53;13.50;;;9.30;;
11197;SDS011;5655;48.744;9.162;2024-03-02T01:25:19;12.27;;;8.73;;
11197;SDS011;5655;48.744;9.162;2024-03-02T01:27:44;13.57;;;9.48;;
11197;SDS011;5655;48.744;9.162;2024-03-02T01:30:09;14.80;;;9.57;;
11197;SDS011;5655;48.744;9.162;2024-03-02T01:32:37;13.82;;;9.23;;
11197;SDS011;5655;48.744;9.162;2024-03-02T01:35:03;13.80;;;8.63;;
11197;SDS011;5655;48.744;9.162;2024-03-02T01:37:29;13.82;;;9.10;;
11197;SDS011;5655;48.744;9.162;2024-03-02T01:39:55;14.13;;;9.75;;
11197;SDS011;5655;48.744;9.162;2024-03-02T01:42:20;14.15;;;9.43;;
11197;SDS011;5655;48.744;9.162;2024-03-02T01:44:45;18.10;;;9.20;;
11197;SDS011;5655;48.744;9.162;2024-03-02T01:47:11;12.95;;;9.38;;
11197;SDS011;5655;48.744;9.162;2024-03-02T01:49:36;13.60;;;8.85;;
11197;SDS011;5655;48.744;9.162;2024-03-02T01:52:03;15.90;;;9.13;;
11197;SDS011;5655;48.744;9.162;2024-03-02T01:54:29;13.20;;;9.65;;
11197;SDS011;5655;48.744;9.162;2024-03-02T01:56:54;14.20;;;9.43;;
11197;SDS011;5655;48.744;9.162;2024-03-02T01:59:20;13.82;;;9.35;;
11197;SDS011;5655;48.744;9.162;2024-03-02T02:01:45;15.93;;;9.13;;
11197;SDS011;5655;48.744;9.162;2024-03-02T02:04:10;14.50;;;9.57;;
11197;SDS011;5655;48.744;9.162;2024-03-02T02:06:36;14.60;;;10.00;;
11197;SDS011;5655;48.744;9.162;2024-03-02T02:09:01;13.85;;;9.65;;
11197;SDS011;5655;48.744;9.162;2024-03-02T02:11:26;14.00;;;9.48;;
11197;SDS011;5655;48.744;9.162;2024-03-02T02:13:52;13.13;;;9.27;;
11197;SDS011;5655;48.744;9.162;2024-03-02T02:16:20;13.27;;;9.10;;
11197;SDS011;5655;48.744;9.162;2024-03-02T02:18:45;13.82;;;9.55;;
11197;SDS011;5655;48.744;9.162;2024-03-02T02:21:11;13.90;;;9.40;;
11197;SDS011;5655;48.744;9.162;2024-03-02T02:23:36;14.50;;;9.63;;
11197;SDS011;5655;48.744;9.162;2024-03-02T02:26:01;15.73;;;9.70;;
11197;SDS011;5655;48.744;9.162;2024-03-02T02:28:27;14.43;;;9.40;;
11197;SDS011;5655;48.744;9.162;2024-03-02T02:30:54;16.17;;;10.13;;
11197;SDS011;5655;48.744;9.162;2024-03-02T02:33:21;14.40;;;9.45;;
11197;SDS011;5655;48.744;9.162;2024-03-02T02:35:46;13.63;;;9.63;;
11197;SDS011;5655;48.744;9.162;2024-03-02T02:38:11;13.48;;;9.55;;
11197;SDS011;5655;48.744;9.162;2024-03-02T02:40:37;15.63;;;10.10;;
11197;SDS011;5655;48.744;9.162;2024-03-02T02:43:02;17.88;;;10.32;;
11197;SDS011;5655;48.744;9.162;2024-03-02T02:45:28;16.58;;;10.50;;
11197;SDS011;5655;48.744;9.162;2024-03-02T02:47:53;14.75;;;9.40;;
11197;SDS011;5655;48.744;9.162;2024-03-02T02:50:19;18.52;;;11.27;;
11197;SDS011;5655;48.744;9.162;2024-03-02T02:52:45;15.85;;;10.77;;
11197;SDS011;5655;48.744;9.162;2024-03-02T02:55:11;16.27;;;10.23;;
11197;SDS011;5655;48.744;9.162;2024-03-02T02:57:37;13.43;;;9.23;;
11197;SDS011;5655;48.744;9.162;2024-03-02T03:00:04;17.10;;;10.88;;
11197;SDS011;5655;48.744;9.162;2024-03-02T03:02:37;15.45;;;10.57;;
11197;SDS011;5655;48.744;9.162;2024-03-02T03:05:03;15.38;;;10.07;;
11197;SDS011;5655;48.744;9.162;2024-03-02T03:07:31;18.17;;;10.73;;
11197;SDS011;5655;48.744;9.162;2024-03-02T03:09:56;18.42;;;11.65;;
11197;SDS011;5655;48.744;9.162;2024-03-02T03:12:21;15.65;;;10.52;;
11197;SDS011;5655;48.744;9.162;2024-03-02T03:14:47;19.33;;;10.82;;
11197;SDS011;5655;48.744;9.162;2024-03-02T03:17:12;16.27;;;10.73;;
11197;SDS011;5655;48.744;9.162;2024-03-02T03:19:38;18.40;;;10.88;;
11197;SDS011;5655;48.744;9.162;2024-03-02T03:22:03;19.50;;;11.50;;
11197;SDS011;5655;48.744;9.162;2024-03-02T03:24:29;18.48;;;11.23;;
11197;SDS011;5655;48.744;9.162;2024-03-02T03:26:54;18.30;;;11.77;;
11197;SDS011;5655;48.744;9.162;2024-03-02T03:29:19;19.20;;;12.45;;
11197;SDS011;5655;48.744;9.162;2024-03-02T03:31:45;21.98;;;12.63;;
11197;SDS011;5655;48.744;9.162;2024-03-02T03:34:10;17.17;;;12.02;;
11197;SDS011;5655;48.744;9.162;2024-03-02T03:36:40;21.70;;;12.35;;
11197;SDS011;5655;48.744;9.162;2024-03-02T03:39:06;17.25;;;10.95;;
11197;SDS011;5655;48.744;9.162;2024-03-02T03:41:31;21.45;;;12.30;;
11197;SDS011;5655;48.744;9.162;2024-03-02T03:43:56;21.58;;;11.85;;
11197;SDS011;5655;48.744;9.162;2024-03-02T03:46:22;21.60;;;11.80;;
11197;SDS011;5655;48.744;9.162;2024-03-02T03:48:47;19.63;;;12.38;;
11197;SDS011;5655;48.744;9.162;2024-03-02T03:51:12;19.95;;;11.90;;
11197;SDS011;5655;48.744;9.162;2024-03-02T03:53:37;17.75;;;11.05;;
11197;SDS011;5655;48.744;9.162;2024-03-02T03:56:03;23.27;;;12.80;;
11197;SDS011;5655;48.744;9.162;2024-03-02T03:58:28;20.90;;;11.88;;
11197;SDS011;5655;48.744;9.162;2024-03-02T04:00:54;21.27;;;12.20;;
11197;SDS011;5655;48.744;9.162;2024-03-02T04:03:19;20.67;;;12.35;;
11197;SDS011;5655;48.744;9.162;2024-03-02T04:05:44;20.52;;;12.57;;
11197;SDS011;5655;48.744;9.162;2024-03-02T04:08:10;20.33;;;12.52;;
11197;SDS011;5655;48.744;9.162;2024-03-02T04:10:36;21.10;;;13.20;;
11197;SDS011;5655;48.744;9.162;2024-03-02T04:13:01;22.50;;;13.10;;
11197;SDS011;5655;48.744;9.162;2024-03-02T04:15:27;18.58;;;12.10;;
11197;SDS011;5655;48.744;9.162;2024-03-02T04:17:52;19.77;;;12.00;;
11197;SDS011;5655;48.744;9.162;2024-03-02T04:20:17;22.60;;;12.93;;
11197;SDS011;5655;48.744;9.162;2024-03-02T04:22:43;20.55;;;11.43;;
11197;SDS011;5655;48.744;9.162;2024-03-02T04:25:08;18.10;;;12.30;;
11197;SDS011;5655;48.744;9.162;2024-03-02T04:27:34;21.65;;;13.27;;
11197;SDS011;5655;48.744;9.162;2024-03-02T04:29:59;23.48;;;12.80;;
11197;SDS011;5655;48.744;9.162;2024-03-02T04:32:25;19.17;;;12.52;;
11197;SDS011;5655;48.744;9.162;2024-03-02T04:34:52;21.23;;;13.30;;
11197;SDS011;5655;48.744;9.162;2024-03-02T04:37:17;23.13;;;13.25;;
11197;SDS011;5655;48.744;9.162;2024-03-02T04:39:42;22.65;;;13.13;;
11197;SDS011;5655;48.744;9.162;2024-03-02T04:42:08;19.42;;;12.40;;
11197;SDS011;5655;48.744;9.162;2024-03-02T04:44:33;23.73;;;13.43;;
11197;SDS011;5655;48.744;9.162;2024-03-02T04:46:59;20.85;;;12.52;;
11197;SDS011;5655;48.744;9.162;2024-03-02T04:49:24;19.02;;;12.98;;
11197;SDS011;5655;48.744;9.162;2024-03-02T04:51:49;20.05;;;12.02;;
11197;SDS011;5655;48.744;9.162;2024-03-02T04:54:14;23.45;;;12.82;;
11197;SDS011;5655;48.744;9.162;2024-03-02T04:56:40;21.75;;;13.52;;
11197;SDS011;5655;48.744;9.162;2024-03-02T04:59:09;20.55;;;13.27;;
11197;SDS011;5655;48.744;9.162;2024-03-02T05:01:35;21.52;;;13.13;;
11197;SDS011;5655;48.744;9.162;2024-03-02T05:04:01;21.75;;;13.80;;
11197;SDS011;5655;48.744;9.162;2024-03-02T05:06:26;21.50;;;12.90;;
11197;SDS011;5655;48.744;9.162;2024-03-02T05:08:52;21.90;;;13.20;;
11197;SDS011;5655;48.744;9.162;2024-03-02T05:11:17;22.10;;;14.00;;
11197;SDS011;5655;48.744;9.162;2024-03-02T05:14:01;20.92;;;13.00;;
11197;SDS011;5655;48.744;9.162;2024-03-02T05:16:26;22.48;;;14.30;;
11197;SDS011;5655;48.744;9.162;2024-03-02T05:18:52;22.20;;;13.55;;
11197;SDS011;5655;48.744;9.162;2024-03-02T05:21:17;24.55;;;14.25;;
11197;SDS011;5655;48.744;9.162;2024-03-02T05:23:43;24.48;;;14.90;;
11197;SDS011;5655;48.744;9.162;2024-03-02T05:26:09;25.40;;;15.30;;
11197;SDS011;5655;48.744;9.162;2024-03-02T05:28:37;26.85;;;16.05;;
11197;SDS011;5655;48.744;9.162;2024-03-02T05:31:03;23.35;;;14.52;;
11197;SDS011;5655;48.744;9.162;2024-03-02T05:33:28;27.65;;;16.17;;
11197;SDS011;5655;48.744;9.162;2024-03-02T05:35:56;28.55;;;16.65;;
11197;SDS011;5655;48.744;9.162;2024-03-02T05:38:21;28.23;;;15.43;;
11197;SDS011;5655;48.744;9.162;2024-03-02T05:40:47;29.50;;;16.10;;
11197;SDS011;5655;48.744;9.162;2024-03-02T05:43:12;28.40;;;15.38;;
11197;SDS011;5655;48.744;9.162;2024-03-02T05:45:38;26.55;;;15.93;;
11197;SDS011;5655;48.744;9.162;2024-03-02T05:48:04;20.25;;;13.00;;
11197;SDS011;5655;48.744;9.162;2024-03-02T05:50:31;25.52;;;15.20;;
11197;SDS011;5655;48.744;9.162;2024-03-02T05:52:56;25.92;;;15.23;;
11197;SDS011;5655;48.744;9.162;2024-03-02T05:55:21;25.63;;;15.02;;
11197;SDS011;5655;48.744;9.162;2024-03-02T05:57:47;23.67;;;13.80;;
11197;SDS011;5655;48.744;9.162;2024-03-02T06:00:24;25.90;;;14.10;;
11197;SDS011;5655;48.744;9.162;2024-03-02T06:02:49;23.60;;;13.65;;
11197;SDS011;5655;48.744;9.162;2024-03-02T06:05:15;27.85;;;15.13;;
11197;SDS011;5655;48.744;9.162;2024-03-02T06:07:41;23.13;;;14.25;;
11197;SDS011;5655;48.744;9.162;2024-03-02T06:10:08;25.00;;;13.65;;
11197;SDS011;5655;48.744;9.162;2024-03-02T06:12:34;23.23;;;14.15;;
11197;SDS011;5655;48.744;9.162;2024-03-02T06:14:59;24.08;;;14.02;;
11197;SDS011;5655;48.744;9.162;2024-03-02T06:17:25;22.27;;;13.60;;
11197;SDS011;5655;48.744;9.162;2024-03-02T06:19:50;23.20;;;14.32;;
11197;SDS011;5655;48.744;9.162;2024-03-02T06:22:15;27.45;;;15.60;;
11197;SDS011;5655;48.744;9.162;2024-03-02T06:24:41;23.25;;;14.95;;
11197;SDS011;5655;48.744;9.162;2024-03-02T06:27:06;29.48;;;15.52;;
11197;SDS011;5655;48.744;9.162;2024-03-02T06:29:34;23.10;;;14.23;;
11197;SDS011;5655;48.744;9.162;2024-03-02T06:31:59;23.30;;;14.27;;
11197;SDS011;5655;48.744;9.162;2024-03-02T06:34:25;22.85;;;14.05;;
11197;SDS011;5655;48.744;9.162;2024-03-02T06:36:50;19.42;;;11.95;;
11197;SDS011;5655;48.744;9.162;2024-03-02T06:39:15;21.42;;;13.38;;
11197;SDS011;5655;48.744;9.162;2024-03-02T06:41:41;23.10;;;13.07;;
11197;SDS011;5655;48.744;9.162;2024-03-02T06:44:07;21.80;;;13.52;;
11197;SDS011;5655;48.744;9.162;2024-03-02T06:46:33;18.65;;;11.18;;
11197;SDS011;5655;48.744;9.162;2024-03-02T06:48:58;21.10;;;12.20;;
11197;SDS011;5655;48.744;9.162;2024-03-02T06:51:23;19.10;;;12.43;;
11197;SDS011;5655;48.744;9.162;2024-03-02T06:53:49;22.45;;;12.55;;
11197;SDS011;5655;48.744;9.162;2024-03-02T06:56:14;22.33;;;12.07;;
11197;SDS011;5655;48.744;9.162;2024-03-02T06:58:39;21.23;;;12.35;;
11197;SDS011;5655;48.744;9.162;2024-03-02T07:01:04;20.38;;;13.00;;
11197;SDS011;5655;48.744;9.162;2024-03-02T07:03:30;20.95;;;11.98;;
11197;SDS011;5655;48.744;9.162;2024-03-02T07:05:55;18.35;;;11.68;;
11197;SDS011;5655;48.744;9.162;2024-03-02T07:08:20;22.48;;;11.95;;
11197;SDS011;5655;48.744;9.162;2024-03-02T07:10:46;18.20;;;11.27;;
11197;SDS011;5655;48.744;9.162;2024-03-02T07:13:12;17.58;;;11.60;;
11197;SDS011;5655;48.744;9.162;2024-03-02T07:15:38;18.60;;;11.88;;
11197;SDS011;5655;48.744;9.162;2024-03-02T07:18:32;17.75;;;11.23;;
11197;SDS011;5655;48.744;9.162;2024-03-02T07:20:58;19.23;;;10.70;;
11197;SDS011;5655;48.744;9.162;2024-03-02T07:23:26;19.70;;;11.07;;
11197;SDS011;5655;48.744;9.162;2024-03-02T07:25:55;19.20;;;10.77;;
11197;SDS011;5655;48.744;9.162;2024-03-02T07:28:21;15.55;;;9.63;;
11197;SDS011;5655;48.744;9.162;2024-03-02T07:30:47;14.45;;;8.75;;
11197;SDS011;5655;48.744;9.162;2024-03-02T07:33:22;13.95;;;9.27;;
11197;SDS011;5655;48.744;9.162;2024-03-02T07:35:47;16.80;;;8.75;;
11197;SDS011;5655;48.744;9.162;2024-03-02T07:38:13;17.17;;;9.90;;
11197;SDS011;5655;48.744;9.162;2024-03-02T07:40:38;13.55;;;9.30;;
11197;SDS011;5655;48.744;9.162;2024-03-02T07:43:03;13.93;;;9.10;;
11197;SDS011;5655;48.744;9.162;2024-03-02T07:45:29;12.88;;;8.10;;
11197;SDS011;5655;48.744;9.162;2024-03-02T07:47:55;13.60;;;9.53;;
11197;SDS011;5655;48.744;9.162;2024-03-02T07:50:20;13.13;;;7.60;;
11197;SDS011;5655;48.744;9.162;2024-03-02T07:52:45;13.38;;;8.80;;
11197;SDS011;5655;48.744;9.162;2024-03-02T07:55:11;11.32;;;8.23;;
11197;SDS011;5655;48.744;9.162;2024-03-02T07:57:36;12.93;;;8.93;;
11197;SDS011;5655;48.744;9.162;2024-03-02T08:00:02;13.40;;;7.95;;
11197;SDS011;5655;48.744;9.162;2024-03-02T08:02:27;11.15;;;7.03;;
11197;SDS011;5655;48.744;9.162;2024-03-02T08:04:52;12.45;;;8.35;;
11197;SDS011;5655;48.744;9.162;2024-03-02T08:07:18;12.23;;;8.50;;
11197;SDS011;5655;48.744;9.162;2024-03-02T08:09:43;11.65;;;7.60;;
11197;SDS011;5655;48.744;9.162;2024-03-02T08:12:09;14.10;;;8.48;;
11197;SDS011;5655;48.744;9.162;2024-03-02T08:14:34;15.20;;;9.75;;
11197;SDS011;5655;48.744;9.162;2024-03-02T08:16:59;11.88;;;8.18;;
11197;SDS011;5655;48.744;9.162;2024-03-02T08:19:26;12.93;;;8.13;;
11197;SDS011;5655;48.744;9.162;2024-03-02T08:21:52;14.32;;;8.60;;
11197;SDS011;5655;48.744;9.162;2024-03-02T08:24:17;12.93;;;8.23;;
11197;SDS011;5655;48.744;9.162;2024-03-02T08:26:42;13.60;;;8.60;;
11197;SDS011;5655;48.744;9.162;2024-03-02T08:29:08;15.10;;;8.90;;
11197;SDS011;5655;48.744;9.162;2024-03-02T08:31:33;12.15;;;7.90;;
11197;SDS011;5655;48.744;9.162;2024-03-02T08:33:58;11.18;;;7.97;;
11197;SDS011;5655;48.744;9.162;2024-03-02T08:36:23;9.57;;;7.10;;
11197;SDS011;5655;48.744;9.162;2024-03-02T08:38:49;10.60;;;7.18;;
11197;SDS011;5655;48.744;9.162;2024-03-02T08:41:15;10.73;;;6.97;;
11197;SDS011;5655;48.744;9.162;2024-03-02T08:43:41;10.45;;;6.65;;
11197;SDS011;5655;48.744;9.162;2024-03-02T08:46:07;9.40;;;7.10;;
11197;SDS011;5655;48.744;9.162;2024-03-02T08:48:32;10.07;;;6.60;;
11197;SDS011;5655;48.744;9.162;2024-03-02T08:50:58;11.07;;;6.47;;
11197;SDS011;5655;48.744;9.162;2024-03-02T08:53:23;9.10;;;6.85;;
11197;SDS011;5655;48.744;9.162;2024-03-02T08:55:49;9.93;;;6.85;;
11197;SDS011;5655;48.744;9.162;2024-03-02T08:58:14;9.95;;;6.65;;
11197;SDS011;5655;48.744;9.162;2024-03-02T09:00:40;8.77;;;7.10;;
11197;SDS011;5655;48.744;9.162;2024-03-02T09:03:05;10.82;;;6.75;;
11197;SDS011;5655;48.744;9.162;2024-03-02T09:05:31;8.65;;;6.65;;
11197;SDS011;5655;48.744;9.162;2024-03-02T09:07:56;9.82;;;6.15;;
11197;SDS011;5655;48.744;9.162;2024-03-02T09:10:21;9.60;;;6.88;;
11197;SDS011;5655;48.744;9.162;2024-03-02T09:12:47;10.70;;;6.85;;
11197;SDS011;5655;48.744;9.162;2024-03-02T09:15:12;8.55;;;6.43;;
11197;SDS011;5655;48.744;9.162;2024-03-02T09:17:37;8.32;;;6.30;;
11197;SDS011;5655;48.744;9.162;2024-03-02T09:20:03;9.45;;;6.28;;
11197;SDS011;5655;48.744;9.162;2024-03-02T09:22:30;13.20;;;7.70;;
11197;SDS011;5655;48.744;9.162;2024-03-02T09:24:55;8.98;;;7.32;;
11197;SDS011;5655;48.744;9.162;2024-03-02T09:27:20;10.30;;;6.53;;
11197;SDS011;5655;48.744;9.162;2024-03-02T09:29:46;10.65;;;6.05;;
11197;SDS011;5655;48.744;9.162;2024-03-02T09:32:14;11.13;;;6.00;;
11197;SDS011;5655;48.744;9.162;2024-03-02T09:34:40;9.88;;;6.20;;
11197;SDS011;5655;48.744;9.162;2024-03-02T09:37:06;12.02;;;5.85;;
11197;SDS011;5655;48.744;9.162;2024-03-02T09:39:32;7.07;;;5.05;;
11197;SDS011;5655;48.744;9.162;2024-03-02T09:41:57;7.47;;;5.20;;
11197;SDS011;5655;48.744;9.162;2024-03-02T09:44:24;8.60;;;5.78;;
11197;SDS011;5655;48.744;9.162;2024-03-02T09:46:50;7.73;;;4.83;;
11197;SDS011;5655;48.744;9.162;2024-03-02T09:49:16;6.13;;;4.75;;
11197;SDS011;5655;48.744;9.162;2024-03-02T09:51:44;7.47;;;4.70;;
11197;SDS011;5655;48.744;9.162;2024-03-02T09:54:12;5.90;;;4.30;;
11197;SDS011;5655;48.744;9.162;2024-03-02T09:56:38;5.15;;;3.95;;
11197;SDS011;5655;48.744;9.162;2024-03-02T09:59:04;7.97;;;4.15;;
11197;SDS011;5655;48.744;9.162;2024-03-02T10:01:30;6.40;;;4.53;;
11197;SDS011;5655;48.744;9.162;2024-03-02T10:03:55;6.22;;;4.30;;
11197;SDS011;5655;48.744;9.162;2024-03-02T10:06:25;7.47;;;4.88;;
11197;SDS011;5655;48.744;9.162;2024-03-02T10:08:52;6.07;;;4.45;;
11197;SDS011;5655;48.744;9.162;2024-03-02T10:14:04;5.80;;;3.85;;
11197;SDS011;5655;48.744;9.162;2024-03-02T10:16:29;4.97;;;3.85;;
11197;SDS011;5655;48.744;9.162;2024-03-02T10:18:54;5.10;;;4.15;;
11197;SDS011;5655;48.744;9.162;2024-03-02T10:21:20;3.70;;;3.20;;
11197;SDS011;5655;48.744;9.162;2024-03-02T10:23:45;3.88;;;3.20;;
11197;SDS011;5655;48.744;9.162;2024-03-02T10:26:17;4.10;;;3.33;;
11197;SDS011;5655;48.744;9.162;2024-03-02T10:28:48;4.93;;;3.47;;
11197;SDS011;5655;48.744;9.162;2024-03-02T10:31:13;5.35;;;3.55;;
11197;SDS011;5655;48.744;9.162;2024-03-02T10:33:39;4.85;;;3.85;;
11197;SDS011;5655;48.744;9.162;2024-03-02T10:36:05;4.32;;;3.50;;
11197;SDS011;5655;48.744;9.162;2024-03-02T10:38:30;3.97;;;3.58;;
11197;SDS011;5655;48.744;9.162;2024-03-02T10:40:57;4.53;;;3.90;;
11197;SDS011;5655;48.744;9.162;2024-03-02T10:43:24;4.85;;;3.92;;
11197;SDS011;5655;48.744;9.162;2024-03-02T10:45:51;3.85;;;3.38;;
11197;SDS011;5655;48.744;9.162;2024-03-02T10:48:18;4.13;;;3.30;;
11197;SDS011;5655;48.744;9.162;2024-03-02T10:50:44;4.63;;;4.13;;
11197;SDS011;5655;48.744;9.162;2024-03-02T10:53:10;3.95;;;3.45;;
11197;SDS011;5655;48.744;9.162;2024-03-02T10:55:35;4.82;;;3.25;;
11197;SDS011;5655;48.744;9.162;2024-03-02T10:58:01;4.40;;;3.03;;
11197;SDS011;5655;48.744;9.162;2024-03-02T11:00:32;2.60;;;2.38;;
11197;SDS011;5655;48.744;9.162;2024-03-02T11:03:04;3.10;;;2.80;;
11197;SDS011;5655;48.744;9.162;2024-03-02T11:05:37;5.43;;;3.00;;
11197;SDS011;5655;48.744;9.162;2024-03-02T11:08:08;3.35;;;2.60;;
11197;SDS011;5655;48.744;9.162;2024-03-02T11:10:38;3.33;;;2.58;;
11197;SDS011;5655;48.744;9.162;2024-03-02T11:13:10;4.32;;;3.40;;
11197;SDS011;5655;48.744;9.162;2024-03-02T11:15:37;3.33;;;2.50;;
11197;SDS011;5655;48.744;9.162;2024-03-02T11:18:05;4.22;;;3.40;;
11197;SDS011;5655;48.744;9.162;2024-03-02T11:20:35;3.78;;;3.15;;
11197;SDS011;5655;48.744;9.162;2024-03-02T11:23:06;4.05;;;2.97;;
11197;SDS011;5655;48.744;9.162;2024-03-02T11:25:35;3.42;;;3.13;;
11197;SDS011;5655;48.744;9.162;2024-03-02T11:28:04;4.32;;;3.22;;
11197;SDS011;5655;48.744;9.162;2024-03-02T11:33:04;3.13;;;2.05;;
11197;SDS011;5655;48.744;9.162;2024-03-02T11:35:33;3.17;;;2.10;;
11197;SDS011;5655;48.744;9.162;2024-03-02T11:38:00;0.95;;;0.93;;
11197;SDS011;5655;48.744;9.162;2024-03-02T11:40:26;1.45;;;1.33;;
11197;SDS011;5655;48.744;9.162;2024-03-02T11:42:52;4.00;;;1.77;;
11197;SDS011;5655;48.744;9.162;2024-03-02T11:45:24;2.28;;;1.30;;
11197;SDS011;5655;48.744;9.162;2024-03-02T11:47:54;2.75;;;1.30;;
11197;SDS011;5655;48.744;9.162;2024-03-02T11:50:29;1.67;;;1.50;;
11197;SDS011;5655;48.744;9.162;2024-03-02T11:53:15;2.60;;;1.17;;
11197;SDS011;5655;48.744;9.162;2024-03-02T11:55:42;2.13;;;1.10;;
11197;SDS011;5655;48.744;9.162;2024-03-02T11:58:11;0.82;;;0.82;;
11197;SDS011;5655;48.744;9.162;2024-03-02T12:00:37;2.33;;;0.93;;
11197;SDS011;5655;48.744;9.162;2024-03-02T12:03:06;1.38;;;0.75;;
11197;SDS011;5655;48.744;9.162;2024-03-02T12:05:33;0.65;;;0.60;;
11197;SDS011;5655;48.744;9.162;2024-03-02T12:08:00;0.73;;;0.70;;
11197;SDS011;5655;48.744;9.162;2024-03-02T12:10:28;2.95;;;0.98;;
11197;SDS011;5655;48.744;9.162;2024-03-02T12:13:01;1.50;;;1.00;;
11197;SDS011;5655;48.744;9.162;2024-03-02T12:15:36;1.10;;;1.00;;
11197;SDS011;5655;48.744;9.162;2024-03-02T12:18:03;1.58;;;1.02;;
11197;SDS011;5655;48.744;9.162;2024-03-02T12:20:30;1.30;;;1.13;;
11197;SDS011;5655;48.744;9.162;2024-03-02T12:23:01;1.30;;;1.20;;
11197;SDS011;5655;48.744;9.162;2024-03-02T12:25:28;1.40;;;1.30;;
11197;SDS011;5655;48.744;9.162;2024-03-02T12:27:55;1.98;;;1.35;;
11197;SDS011;5655;48.744;9.162;2024-03-02T12:30:23;1.85;;;1.38;;
11197;SDS011;5655;48.744;9.162;2024-03-02T12:32:49;1.77;;;1.33;;
11197;SDS011;5655;48.744;9.162;2024-03-02T12:35:15;1.95;;;1.55;;
11197;SDS011;5655;48.744;9.162;2024-03-02T12:37:47;1.50;;;1.20;;
11197;SDS011;5655;48.744;9.162;2024-03-02T12:40:15;1.88;;;1.20;;
11197;SDS011;5655;48.744;9.162;2024-03-02T12:42:43;1.42;;;1.33;;
11197;SDS011;5655;48.744;9.162;2024-03-02T12:45:09;1.10;;;0.90;;
11197;SDS011;5655;48.744;9.162;2024-03-02T12:47:35;1.95;;;1.35;;
11197;SDS011;5655;48.744;9.162;2024-03-02T12:50:02;2.05;;;1.33;;
11197;SDS011;5655;48.744;9.162;2024-03-02T12:52:28;1.98;;;1.23;;
11197;SDS011;5655;48.744;9.162;2024-03-02T12:54:53;1.50;;;1.25;;
11197;SDS011;5655;48.744;9.162;2024-03-02T12:57:25;1.27;;;1.08;;
11197;SDS011;5655;48.744;9.162;2024-03-02T12:59:51;1.67;;;1.13;;
11197;SDS011;5655;48.744;9.162;2024-03-02T13:02:17;2.58;;;1.40;;
11197;SDS011;5655;48.744;9.162;2024-03-02T13:04:43;1.58;;;1.30;;
11197;SDS011;5655;48.744;9.162;2024-03-02T13:07:09;1.40;;;1.30;;
11197;SDS011;5655;48.744;9.162;2024-03-02T13:09:35;1.20;;;1.08;;
11197;SDS011;5655;48.744;9.162;2024-03-02T13:12:01;1.65;;;1.38;;
11197;SDS011;5655;48.744;9.162;2024-03-02T13:14:29;1.70;;;1.10;;
11197;SDS011;5655;48.744;9.162;2024-03-02T13:16:57;1.63;;;1.17;;
11197;SDS011;5655;48.744;9.162;2024-03-02T13:19:23;1.45;;;1.15;;
11197;SDS011;5655;48.744;9.162;2024-03-02T13:21:48;1.33;;;1.15;;
11197;SDS011;5655;48.744;9.162;2024-03-02T13:24:15;1.25;;;1.08;;
11197;SDS011;5655;48.744;9.162;2024-03-02T13:26:40;1.95;;;1.40;;
11197;SDS011;5655;48.744;9.162;2024-03-02T13:29:06;1.45;;;1.35;;
11197;SDS011;5655;48.744;9.162;2024-03-02T13:31:32;1.52;;;1.20;;
11197;SDS011;5655;48.744;9.162;2024-03-02T13:33:58;1.40;;;1.15;;
11197;SDS011;5655;48.744;9.162;2024-03-02T13:36:23;2.05;;;1.25;;
11197;SDS011;5655;48.744;9.162;2024-03-02T13:38:49;1.77;;;1.23;;
11197;SDS011;5655;48.744;9.162;2024-03-02T13:41:14;1.42;;;1.15;;
11197;SDS011;5655;48.744;9.162;2024-03-02T13:43:39;1.90;;;1.17;;
11197;SDS011;5655;48.744;9.162;2024-03-02T13:46:05;1.23;;;1.00;;
11197;SDS011;5655;48.744;9.162;2024-03-02T13:48:31;1.20;;;1.10;;
11197;SDS011;5655;48.744;9.162;2024-03-02T13:50:57;1.00;;;0.90;;
11197;SDS011;5655;48.744;9.162;2024-03-02T13:53:22;1.30;;;1.20;;
11197;SDS011;5655;48.744;9.162;2024-03-02T13:55:48;1.20;;;1.08;;
11197;SDS011;5655;48.744;9.162;2024-03-02T13:58:13;1.13;;;1.02;;
11197;SDS011;5655;48.744;9.162;2024-03-02T14:00:39;1.60;;;0.90;;
11197;SDS011;5655;48.744;9.162;2024-03-02T14:03:08;1.38;;;1.23;;
11197;SDS011;5655;48.744;9.162;2024-03-02T14:05:33;1.75;;;1.30;;
11197;SDS011;5655;48.744;9.162;2024-03-02T14:07:59;1.30;;;1.20;;
11197;SDS011;5655;48.744;9.162;2024-03-02T14:10:25;1.35;;;1.15;;
11197;SDS011;5655;48.744;9.162;2024-03-02T14:12:52;2.05;;;1.33;;
11197;SDS011;5655;48.744;9.162;2024-03-02T14:15:17;1.20;;;1.05;;
11197;SDS011;5655;48.744;9.162;2024-03-02T14:17:42;2.53;;;1.05;;
11197;SDS011;5655;48.744;9.162;2024-03-02T14:20:08;1.83;;;1.10;;
11197;SDS011;5655;48.744;9.162;2024-03-02T14:22:36;1.73;;;1.10;;
11197;SDS011;5655;48.744;9.162;2024-03-02T14:25:02;1.60;;;1.20;;
11197;SDS011;5655;48.744;9.162;2024-03-02T14:27:28;1.25;;;1.10;;
11197;SDS011;5655;48.744;9.162;2024-03-02T14:29:53;1.85;;;1.33;;
11197;SDS011;5655;48.744;9.162;2024-03-02T14:32:19;1.38;;;1.25;;
11197;SDS011;5655;48.744;9.162;2024-03-02T14:34:44;1.67;;;1.10;;
11197;SDS011;5655;48.744;9.162;2024-03-02T14:37:11;0.98;;;0.75;;
11197;SDS011;5655;48.744;9.162;2024-03-02T14:39:38;2.03;;;1.00;;
11197;SDS011;5655;48.744;9.162;2024-03-02T14:42:04;1.63;;;1.10;;
11197;SDS011;5655;48.744;9.162;2024-03-02T14:44:29;2.17;;;1.60;;
11197;SDS011;5655;48.744;9.162;2024-03-02T14:46:55;3.03;;;1.20;;
11197;SDS011;5655;48.744;9.162;2024-03-02T14:49:20;1.13;;;0.82;;
11197;SDS011;5655;48.744;9.162;2024-03-02T14:51:45;3.95;;;0.90;;
11197;SDS011;5655;48.744;9.162;2024-03-02T14:54:17;1.30;;;0.90;;